createdAt,value
2022-11-15T00:00:27.891Z,9.42
2022-11-15T00:01:27.105Z,9.35
2022-11-15T00:02:27.193Z,9.42
2022-11-15T00:03:27.064Z,9.34
2022-11-15T00:04:27.871Z,9.41
2022-11-15T00:05:27.070Z,9.34
2022-11-15T00:06:28.073Z,9.37
2022-11-15T00:07:53.566Z,9.42
2022-11-15T00:08:28.011Z,9.37
2022-11-15T00:09:27.015Z,9.34
2022-11-15T00:10:26.990Z,9.41
2022-11-15T00:11:26.978Z,9.35
2022-11-15T00:12:26.981Z,9.41
2022-11-15T00:13:26.972Z,9.38
2022-11-15T00:14:26.965Z,9.37
2022-11-15T00:15:26.940Z,9.52
2022-11-15T00:16:26.920Z,9.42
2022-11-15T00:17:26.916Z,9.53
2022-11-15T00:18:26.905Z,9.45
2022-11-15T00:19:26.909Z,9.41
2022-11-15T00:20:26.883Z,9.50
2022-11-15T00:21:26.882Z,9.45
2022-11-15T00:22:29.378Z,9.50
2022-11-15T00:23:26.844Z,9.49
2022-11-15T00:24:26.830Z,9.42
2022-11-15T00:25:26.850Z,9.49
2022-11-15T00:26:26.819Z,9.50
2022-11-15T00:27:26.801Z,9.50
2022-11-15T00:28:26.794Z,9.45
2022-11-15T00:29:26.803Z,9.52
2022-11-15T00:30:29.411Z,9.50
2022-11-15T00:31:26.784Z,9.49
2022-11-15T00:32:26.773Z,9.50
2022-11-15T00:33:26.741Z,9.53
2022-11-15T00:34:26.733Z,9.49
2022-11-15T00:35:26.720Z,9.48
2022-11-15T00:36:26.716Z,9.52
2022-11-15T00:37:26.726Z,9.50
2022-11-15T00:38:26.689Z,9.52
2022-11-15T00:39:26.668Z,9.58
2022-11-15T00:40:27.380Z,9.53
2022-11-15T00:41:26.668Z,9.52
2022-11-15T00:42:26.679Z,9.55
2022-11-15T00:43:26.692Z,9.52
2022-11-15T00:44:26.620Z,9.63
2022-11-15T00:45:26.610Z,9.50
2022-11-15T00:46:26.623Z,9.59
2022-11-15T00:47:26.591Z,9.55
2022-11-15T00:48:26.574Z,9.62
2022-11-15T00:49:26.561Z,9.68
2022-11-15T00:50:26.551Z,9.52
2022-11-15T00:51:26.545Z,9.53
2022-11-15T00:52:26.553Z,9.56
2022-11-15T00:53:27.388Z,9.65
2022-11-15T00:54:26.533Z,9.55
2022-11-15T00:55:29.377Z,9.58
2022-11-15T00:56:26.487Z,9.53
2022-11-15T00:57:26.479Z,9.55
2022-11-15T00:58:26.467Z,9.50
2022-11-15T00:59:26.482Z,9.53
2022-11-15T01:00:26.470Z,9.53
2022-11-15T01:01:26.449Z,9.55
2022-11-15T01:02:26.432Z,9.50
2022-11-15T01:03:26.407Z,9.65
2022-11-15T01:04:26.904Z,9.67
2022-11-15T01:05:33.366Z,9.63
2022-11-15T01:06:26.386Z,9.62
2022-11-15T01:07:26.479Z,9.63
2022-11-15T01:08:26.384Z,9.67
2022-11-15T01:09:26.356Z,9.68
2022-11-15T01:10:26.373Z,9.70
2022-11-15T01:11:26.329Z,9.77
2022-11-15T01:12:26.350Z,9.78
2022-11-15T01:13:29.155Z,9.77
2022-11-15T01:14:26.292Z,9.80
2022-11-15T01:15:26.295Z,9.86
2022-11-15T01:16:26.297Z,9.85
2022-11-15T01:17:26.874Z,9.95
2022-11-15T01:18:26.250Z,9.91
2022-11-15T01:19:26.254Z,9.91
2022-11-15T01:20:26.878Z,9.91
2022-11-15T01:21:26.220Z,9.95
2022-11-15T01:22:26.867Z,9.96
2022-11-15T01:23:26.224Z,10.04
2022-11-15T01:24:26.175Z,9.96
2022-11-15T01:25:26.212Z,10.09
2022-11-15T01:26:32.883Z,10.04
2022-11-15T01:27:26.165Z,10.09
2022-11-15T01:28:26.135Z,10.13
2022-11-15T01:29:26.129Z,10.18
2022-11-15T01:30:26.116Z,10.24
2022-11-15T01:31:26.179Z,10.17
2022-11-15T01:32:26.098Z,10.34
2022-11-15T01:33:26.887Z,10.31
2022-11-15T01:34:26.070Z,10.34
2022-11-15T01:35:26.069Z,10.43
2022-11-15T01:36:26.878Z,10.47
2022-11-15T01:37:27.126Z,10.46
2022-11-15T01:38:32.901Z,10.58
2022-11-15T01:39:27.962Z,10.58
2022-11-15T01:40:26.017Z,10.55
2022-11-15T01:41:26.019Z,10.65
2022-11-15T01:42:25.984Z,10.66
2022-11-15T01:43:25.969Z,10.66
2022-11-15T01:44:25.959Z,10.75
2022-11-15T01:45:26.900Z,10.75
2022-11-15T01:46:25.947Z,10.75
2022-11-15T01:47:25.934Z,10.73
2022-11-15T01:48:25.951Z,10.70
2022-11-15T01:49:25.930Z,10.73
2022-11-15T01:50:25.919Z,10.84
2022-11-15T01:51:25.896Z,10.86
2022-11-15T01:52:25.882Z,10.91
2022-11-15T01:53:25.898Z,10.84
2022-11-15T01:54:25.875Z,10.91
2022-11-15T01:55:25.855Z,10.80
2022-11-15T01:56:25.840Z,10.88
2022-11-15T01:57:25.836Z,10.90
2022-11-15T01:58:25.924Z,10.84
2022-11-15T01:59:25.796Z,10.86
2022-11-15T02:00:32.432Z,10.90
2022-11-15T02:01:26.454Z,10.93
2022-11-15T02:02:25.772Z,10.87
2022-11-15T02:03:25.765Z,10.87
2022-11-15T02:04:25.903Z,10.87
2022-11-15T02:05:25.732Z,10.88
2022-11-15T02:06:26.385Z,10.93
2022-11-15T02:07:25.762Z,10.94
2022-11-15T02:08:25.700Z,10.90
2022-11-15T02:09:25.700Z,10.98
2022-11-15T02:10:25.696Z,11.01
2022-11-15T02:11:26.375Z,10.99
2022-11-15T02:12:25.662Z,10.93
2022-11-15T02:13:25.658Z,10.94
2022-11-15T02:14:25.705Z,10.98
2022-11-15T02:15:25.644Z,10.98
2022-11-15T02:16:25.617Z,11.06
2022-11-15T02:17:25.592Z,11.03
2022-11-15T02:18:25.590Z,11.01
2022-11-15T02:19:25.578Z,11.02
2022-11-15T02:20:25.598Z,11.05
2022-11-15T02:21:25.562Z,11.02
2022-11-15T02:22:25.907Z,11.06
2022-11-15T02:23:25.535Z,11.12
2022-11-15T02:24:25.542Z,11.11
2022-11-15T02:25:25.521Z,11.17
2022-11-15T02:26:25.518Z,11.11
2022-11-15T02:27:28.371Z,11.13
2022-11-15T02:28:25.473Z,11.08
2022-11-15T02:29:25.491Z,11.12
2022-11-15T02:30:25.454Z,11.06
2022-11-15T02:31:25.478Z,11.08
2022-11-15T02:32:25.431Z,11.16
2022-11-15T02:33:28.655Z,11.17
2022-11-15T02:34:25.417Z,11.06
2022-11-15T02:35:25.409Z,11.11
2022-11-15T02:36:28.372Z,11.12
2022-11-15T02:37:26.422Z,11.08
2022-11-15T02:38:25.372Z,11.12
2022-11-15T02:39:25.362Z,11.09
2022-11-15T02:40:25.875Z,11.20
2022-11-15T02:41:25.345Z,11.09
2022-11-15T02:42:25.342Z,11.09
2022-11-15T02:43:25.320Z,11.12
2022-11-15T02:44:25.313Z,11.06
2022-11-15T02:45:25.311Z,11.17
2022-11-15T02:46:25.874Z,11.12
2022-11-15T02:47:26.312Z,11.11
2022-11-15T02:48:25.281Z,11.09
2022-11-15T02:49:25.284Z,11.12
2022-11-15T02:50:25.264Z,11.09
2022-11-15T02:51:27.877Z,11.08
2022-11-15T02:52:25.226Z,11.12
2022-11-15T02:53:25.239Z,11.09
2022-11-15T02:54:25.213Z,11.06
2022-11-15T02:55:25.181Z,11.09
2022-11-15T02:56:25.882Z,11.17
2022-11-15T02:57:26.429Z,11.17
2022-11-15T02:58:25.154Z,11.09
2022-11-15T02:59:25.177Z,11.12
2022-11-15T03:00:25.135Z,11.20
2022-11-15T03:01:25.206Z,11.20
2022-11-15T03:02:25.106Z,11.19
2022-11-15T03:03:25.102Z,11.16
2022-11-15T03:04:27.498Z,11.16
2022-11-15T03:05:25.081Z,11.24
2022-11-15T03:06:25.071Z,11.16
2022-11-15T03:07:25.114Z,11.21
2022-11-15T03:08:25.044Z,11.24
2022-11-15T03:09:25.034Z,11.23
2022-11-15T03:10:25.410Z,11.27
2022-11-15T03:11:25.008Z,11.26
2022-11-15T03:12:28.904Z,11.24
2022-11-15T03:13:25.441Z,11.36
2022-11-15T03:14:39.878Z,11.33
2022-11-15T03:15:31.879Z,11.42
2022-11-15T03:16:24.990Z,11.42
2022-11-15T03:17:24.969Z,11.46
2022-11-15T03:18:24.941Z,11.51
2022-11-15T03:19:24.953Z,11.51
2022-11-15T03:20:24.917Z,11.56
2022-11-15T03:21:24.906Z,11.54
2022-11-15T03:22:24.884Z,11.59
2022-11-15T03:23:24.894Z,11.64
2022-11-15T03:24:26.252Z,11.67
2022-11-15T03:25:24.907Z,11.66
2022-11-15T03:26:24.838Z,11.64
2022-11-15T03:27:25.402Z,11.70
2022-11-15T03:28:24.899Z,11.75
2022-11-15T03:29:24.825Z,11.70
2022-11-15T03:30:24.793Z,11.78
2022-11-15T03:31:25.388Z,11.79
2022-11-15T03:32:24.782Z,11.78
2022-11-15T03:33:26.901Z,11.79
2022-11-15T03:34:24.765Z,11.90
2022-11-15T03:35:24.918Z,11.78
2022-11-15T03:36:24.738Z,11.81
2022-11-15T03:37:24.721Z,11.78
2022-11-15T03:38:24.814Z,11.87
2022-11-15T03:39:24.706Z,11.82
2022-11-15T03:40:24.695Z,11.87
2022-11-15T03:41:24.706Z,11.85
2022-11-15T03:42:24.676Z,11.94
2022-11-15T03:43:24.659Z,11.87
2022-11-15T03:44:24.657Z,11.98
2022-11-15T03:45:24.638Z,12.01
2022-11-15T03:46:24.635Z,11.98
2022-11-15T03:47:24.635Z,11.93
2022-11-15T03:48:24.606Z,12.00
2022-11-15T03:49:25.389Z,11.97
2022-11-15T03:50:25.384Z,11.94
2022-11-15T03:51:24.571Z,12.00
2022-11-15T03:52:24.576Z,12.00
2022-11-15T03:53:24.575Z,12.04
2022-11-15T03:54:24.545Z,11.98
2022-11-15T03:55:24.544Z,11.97
2022-11-15T03:56:24.515Z,11.97
2022-11-15T03:57:24.503Z,12.00
2022-11-15T03:58:24.505Z,12.12
2022-11-15T03:59:24.509Z,12.03
2022-11-15T04:00:24.493Z,12.08
2022-11-15T04:01:24.492Z,12.04
2022-11-15T04:02:24.454Z,12.05
2022-11-15T04:03:24.482Z,12.03
2022-11-15T04:04:24.465Z,12.08
2022-11-15T04:05:25.399Z,12.05
2022-11-15T04:06:24.421Z,12.18
2022-11-15T04:07:24.421Z,12.08
2022-11-15T04:08:24.404Z,12.01
2022-11-15T04:09:24.873Z,12.11
2022-11-15T04:10:24.417Z,12.07
2022-11-15T04:11:30.878Z,12.08
2022-11-15T04:12:24.377Z,12.08
2022-11-15T04:13:24.335Z,12.11
2022-11-15T04:14:25.377Z,12.07
2022-11-15T04:15:24.314Z,12.05
2022-11-15T04:16:24.316Z,12.07
2022-11-15T04:17:24.303Z,12.08
2022-11-15T04:18:24.280Z,12.11
2022-11-15T04:19:24.261Z,12.11
2022-11-15T04:20:24.287Z,12.12
2022-11-15T04:21:24.264Z,12.08
2022-11-15T04:22:24.260Z,12.19
2022-11-15T04:23:24.238Z,12.16
2022-11-15T04:24:24.217Z,12.08
2022-11-15T04:25:28.389Z,12.12
2022-11-15T04:26:25.214Z,12.08
2022-11-15T04:27:24.204Z,12.08
2022-11-15T04:28:24.173Z,12.07
2022-11-15T04:29:24.159Z,12.12
2022-11-15T04:30:24.160Z,12.16
2022-11-15T04:31:24.134Z,12.16
2022-11-15T04:32:24.152Z,12.07
2022-11-15T04:33:24.126Z,12.08
2022-11-15T04:34:24.113Z,12.13
2022-11-15T04:35:24.093Z,12.11
2022-11-15T04:36:24.099Z,12.23
2022-11-15T04:37:24.905Z,12.16
2022-11-15T04:38:26.900Z,12.13
2022-11-15T04:39:24.056Z,12.12
2022-11-15T04:40:24.053Z,12.23
2022-11-15T04:41:24.446Z,12.19
2022-11-15T04:42:24.023Z,12.16
2022-11-15T04:43:24.883Z,12.19
2022-11-15T04:44:23.997Z,12.19
2022-11-15T04:45:30.883Z,12.26
2022-11-15T04:46:23.980Z,12.29
2022-11-15T04:47:23.979Z,12.16
2022-11-15T04:48:23.959Z,12.21
2022-11-15T04:49:23.931Z,12.21
2022-11-15T04:50:23.930Z,12.22
2022-11-15T04:51:23.913Z,12.22
2022-11-15T04:52:23.927Z,12.23
2022-11-15T04:53:26.895Z,12.26
2022-11-15T04:54:23.917Z,12.18
2022-11-15T04:55:23.873Z,12.22
2022-11-15T04:56:24.385Z,12.30
2022-11-15T04:57:23.852Z,12.26
2022-11-15T04:58:25.441Z,12.18
2022-11-15T04:59:24.380Z,12.21
2022-11-15T05:00:23.845Z,12.18
2022-11-15T05:01:23.932Z,12.22
2022-11-15T05:02:23.797Z,12.23
2022-11-15T05:03:23.807Z,12.18
2022-11-15T05:04:23.767Z,12.22
2022-11-15T05:05:23.791Z,12.19
2022-11-15T05:06:23.767Z,12.12
2022-11-15T05:07:23.781Z,12.15
2022-11-15T05:08:23.731Z,12.11
2022-11-15T05:09:23.771Z,12.16
2022-11-15T05:10:23.734Z,12.13
2022-11-15T05:11:23.723Z,12.12
2022-11-15T05:12:24.378Z,12.12
2022-11-15T05:13:23.679Z,12.16
2022-11-15T05:14:23.681Z,12.07
2022-11-15T05:15:23.655Z,12.07
2022-11-15T05:16:23.632Z,12.13
2022-11-15T05:17:23.655Z,12.16
2022-11-15T05:18:24.048Z,12.12
2022-11-15T05:19:23.614Z,12.05
2022-11-15T05:20:23.589Z,12.07
2022-11-15T05:21:24.392Z,12.04
2022-11-15T05:22:23.911Z,12.12
2022-11-15T05:23:24.385Z,12.05
2022-11-15T05:24:23.554Z,12.01
2022-11-15T05:25:23.563Z,12.04
2022-11-15T05:26:23.536Z,12.11
2022-11-15T05:27:23.532Z,12.05
2022-11-15T05:28:23.525Z,12.05
2022-11-15T05:29:23.504Z,12.15
2022-11-15T05:30:23.491Z,12.07
2022-11-15T05:31:23.472Z,12.08
2022-11-15T05:32:23.496Z,12.11
2022-11-15T05:33:23.468Z,12.13
2022-11-15T05:34:24.481Z,12.03
2022-11-15T05:35:23.436Z,12.05
2022-11-15T05:36:23.451Z,12.15
2022-11-15T05:37:23.411Z,12.13
2022-11-15T05:38:23.420Z,12.12
2022-11-15T05:39:23.424Z,12.05
2022-11-15T05:40:23.379Z,12.08
2022-11-15T05:41:23.392Z,12.11
2022-11-15T05:42:23.352Z,12.05
2022-11-15T05:43:23.373Z,11.97
2022-11-15T05:44:23.353Z,12.04
2022-11-15T05:45:26.910Z,11.93
2022-11-15T05:46:23.321Z,11.94
2022-11-15T05:47:23.303Z,11.94
2022-11-15T05:48:23.289Z,11.93
2022-11-15T05:49:23.291Z,11.84
2022-11-15T05:50:23.296Z,11.94
2022-11-15T05:51:23.267Z,11.90
2022-11-15T05:52:23.245Z,11.88
2022-11-15T05:53:23.241Z,11.85
2022-11-15T05:54:23.421Z,11.77
2022-11-15T05:55:23.219Z,11.93
2022-11-15T05:56:23.201Z,11.79
2022-11-15T05:57:23.214Z,11.84
2022-11-15T05:58:23.887Z,11.74
2022-11-15T05:59:23.173Z,11.78
2022-11-15T06:00:23.179Z,11.81
2022-11-15T06:01:23.172Z,11.78
2022-11-15T06:02:37.966Z,11.77
2022-11-15T06:03:23.118Z,11.79
2022-11-15T06:04:23.122Z,11.75
2022-11-15T06:05:23.103Z,11.78
2022-11-15T06:06:23.098Z,11.75
2022-11-15T06:07:23.469Z,11.74
2022-11-15T06:08:23.080Z,11.77
2022-11-15T06:09:23.094Z,11.81
2022-11-15T06:10:23.051Z,11.74
2022-11-15T06:11:23.038Z,11.90
2022-11-15T06:12:23.028Z,11.77
2022-11-15T06:13:23.029Z,11.85
2022-11-15T06:14:23.019Z,11.90
2022-11-15T06:15:23.014Z,11.90
2022-11-15T06:16:23.003Z,11.97
2022-11-15T06:17:22.968Z,11.90
2022-11-15T06:18:22.963Z,12.03
2022-11-15T06:19:23.897Z,12.00
2022-11-15T06:20:22.934Z,11.94
2022-11-15T06:21:22.931Z,12.00
2022-11-15T06:22:22.947Z,12.00
2022-11-15T06:23:22.907Z,12.01
2022-11-15T06:24:22.920Z,12.04
2022-11-15T06:25:22.891Z,12.04
2022-11-15T06:26:22.872Z,12.16
2022-11-15T06:27:22.864Z,12.12
2022-11-15T06:28:22.855Z,12.23
2022-11-15T06:29:22.909Z,12.21
2022-11-15T06:30:22.864Z,12.26
2022-11-15T06:31:22.823Z,12.25
2022-11-15T06:32:25.398Z,12.31
2022-11-15T06:33:22.802Z,12.40
2022-11-15T06:34:22.791Z,12.40
2022-11-15T06:35:22.778Z,12.33
2022-11-15T06:36:22.780Z,12.41
2022-11-15T06:37:22.757Z,12.31
2022-11-15T06:38:22.750Z,12.33
2022-11-15T06:39:22.757Z,12.36
2022-11-15T06:40:22.718Z,12.44
2022-11-15T06:41:22.708Z,12.38
2022-11-15T06:42:22.713Z,12.37
2022-11-15T06:43:22.692Z,12.37
2022-11-15T06:44:22.680Z,12.41
2022-11-15T06:45:22.705Z,12.48
2022-11-15T06:46:22.668Z,12.44
2022-11-15T06:47:22.643Z,12.48
2022-11-15T06:48:25.412Z,12.49
2022-11-15T06:49:22.661Z,12.54
2022-11-15T06:50:22.628Z,12.46
2022-11-15T06:51:22.597Z,12.51
2022-11-15T06:52:22.588Z,12.59
2022-11-15T06:53:22.604Z,12.54
2022-11-15T06:54:25.409Z,12.56
2022-11-15T06:55:22.918Z,12.58
2022-11-15T06:56:22.544Z,12.54
2022-11-15T06:57:23.389Z,12.59
2022-11-15T06:58:22.918Z,12.61
2022-11-15T06:59:22.520Z,12.71
2022-11-15T07:00:23.394Z,12.73
2022-11-15T07:01:22.688Z,12.71
2022-11-15T07:02:22.480Z,12.73
2022-11-15T07:03:22.467Z,12.69
2022-11-15T07:04:22.472Z,12.63
2022-11-15T07:05:22.449Z,12.73
2022-11-15T07:06:22.438Z,12.77
2022-11-15T07:07:25.474Z,12.69
2022-11-15T07:08:22.387Z,12.67
2022-11-15T07:09:22.398Z,12.74
2022-11-15T07:10:22.410Z,12.74
2022-11-15T07:11:22.385Z,12.73
2022-11-15T07:12:22.396Z,12.67
2022-11-15T07:13:22.902Z,12.70
2022-11-15T07:14:22.366Z,12.74
2022-11-15T07:15:24.896Z,12.69
2022-11-15T07:16:24.890Z,12.71
2022-11-15T07:17:22.333Z,12.71
2022-11-15T07:18:22.303Z,12.74
2022-11-15T07:19:22.290Z,12.66
2022-11-15T07:20:22.303Z,12.66
2022-11-15T07:21:27.278Z,12.74
2022-11-15T07:22:23.271Z,12.61
2022-11-15T07:23:22.271Z,12.67
2022-11-15T07:24:22.892Z,12.58
2022-11-15T07:25:22.232Z,12.58
2022-11-15T07:26:22.229Z,12.56
2022-11-15T07:27:22.221Z,12.55
2022-11-15T07:28:22.202Z,12.61
2022-11-15T07:29:22.180Z,12.58
2022-11-15T07:30:22.195Z,12.58
2022-11-15T07:31:22.168Z,12.62
2022-11-15T07:32:22.150Z,12.63
2022-11-15T07:33:22.149Z,12.63
2022-11-15T07:34:24.904Z,12.63
2022-11-15T07:35:22.142Z,12.63
2022-11-15T07:36:24.912Z,12.69
2022-11-15T07:37:22.101Z,12.66
2022-11-15T07:38:22.100Z,12.71
2022-11-15T07:39:24.907Z,12.69
2022-11-15T07:40:22.060Z,12.67
2022-11-15T07:41:22.039Z,12.67
2022-11-15T07:42:22.892Z,12.77
2022-11-15T07:43:22.037Z,12.69
2022-11-15T07:44:22.034Z,12.71
2022-11-15T07:45:24.911Z,12.71
2022-11-15T07:46:22.069Z,12.73
2022-11-15T07:47:22.903Z,12.76
2022-11-15T07:48:24.965Z,12.77
2022-11-15T07:49:21.970Z,12.77
2022-11-15T07:50:21.951Z,12.79
2022-11-15T07:51:21.964Z,12.84
2022-11-15T07:52:21.946Z,12.73
2022-11-15T07:53:21.919Z,12.77
2022-11-15T07:54:24.919Z,12.76
2022-11-15T07:55:21.918Z,12.79
2022-11-15T07:56:21.882Z,12.80
2022-11-15T07:57:21.901Z,12.81
2022-11-15T07:58:21.857Z,12.80
2022-11-15T07:59:21.860Z,12.80
2022-11-15T08:00:21.843Z,12.88
2022-11-15T08:01:24.515Z,12.84
2022-11-15T08:02:24.354Z,12.84
2022-11-15T08:03:22.813Z,12.91
2022-11-15T08:04:21.841Z,12.80
2022-11-15T08:05:21.793Z,12.81
2022-11-15T08:06:21.771Z,12.85
2022-11-15T08:07:21.844Z,12.94
2022-11-15T08:08:21.767Z,12.98
2022-11-15T08:09:21.744Z,12.91
2022-11-15T08:10:22.415Z,12.99
2022-11-15T08:11:21.726Z,12.80
2022-11-15T08:12:21.974Z,12.88
2022-11-15T08:13:21.811Z,12.84
2022-11-15T08:14:21.694Z,12.88
2022-11-15T08:15:21.676Z,12.87
2022-11-15T08:16:21.678Z,12.85
2022-11-15T08:17:21.652Z,12.87
2022-11-15T08:18:21.654Z,12.84
2022-11-15T08:19:21.654Z,12.80
2022-11-15T08:20:21.652Z,12.77
2022-11-15T08:21:21.621Z,12.84
2022-11-15T08:22:21.605Z,12.74
2022-11-15T08:23:24.399Z,12.80
2022-11-15T08:24:21.609Z,12.80
2022-11-15T08:25:21.570Z,12.85
2022-11-15T08:26:21.558Z,12.84
2022-11-15T08:27:22.566Z,12.89
2022-11-15T08:28:28.407Z,12.85
2022-11-15T08:29:21.535Z,12.92
2022-11-15T08:30:21.536Z,12.99
2022-11-15T08:31:21.510Z,13.01
2022-11-15T08:32:21.487Z,12.92
2022-11-15T08:33:21.486Z,13.09
2022-11-15T08:34:21.476Z,13.01
2022-11-15T08:35:24.923Z,13.07
2022-11-15T08:36:22.487Z,13.06
2022-11-15T08:37:21.468Z,13.06
2022-11-15T08:38:21.433Z,13.09
2022-11-15T08:39:21.409Z,13.10
2022-11-15T08:40:21.904Z,13.10
2022-11-15T08:41:21.412Z,13.13
2022-11-15T08:42:21.381Z,13.13
2022-11-15T08:43:21.371Z,13.13
2022-11-15T08:44:21.359Z,13.13
2022-11-15T08:45:21.357Z,13.16
2022-11-15T08:46:21.437Z,13.09
2022-11-15T08:47:21.355Z,13.09
2022-11-15T08:48:21.327Z,13.12
2022-11-15T08:49:21.308Z,13.12
2022-11-15T08:50:21.289Z,13.06
2022-11-15T08:51:21.289Z,13.10
2022-11-15T08:52:21.295Z,13.12
2022-11-15T08:53:26.434Z,13.12
2022-11-15T08:54:21.245Z,13.16
2022-11-15T08:55:24.581Z,13.14
2022-11-15T08:56:21.230Z,13.13
2022-11-15T08:57:21.909Z,13.19
2022-11-15T08:58:21.232Z,13.13
2022-11-15T08:59:21.230Z,13.16
2022-11-15T09:00:21.185Z,13.13
2022-11-15T09:01:21.283Z,13.21
2022-11-15T09:02:23.912Z,13.22
2022-11-15T09:03:21.159Z,13.32
2022-11-15T09:04:21.442Z,13.28
2022-11-15T09:05:21.131Z,13.22
2022-11-15T09:06:21.911Z,13.19
2022-11-15T09:07:21.199Z,13.22
2022-11-15T09:08:50.619Z,13.28
2022-11-15T09:09:24.503Z,13.25
2022-11-15T09:10:21.067Z,13.28
2022-11-15T09:11:23.929Z,13.25
2022-11-15T09:12:21.053Z,13.38
2022-11-15T09:13:21.045Z,13.28
2022-11-15T09:14:21.918Z,13.36
2022-11-15T09:15:21.036Z,13.35
2022-11-15T09:16:22.093Z,13.35
2022-11-15T09:17:25.207Z,13.35
2022-11-15T09:18:22.412Z,13.28
2022-11-15T09:19:21.906Z,13.39
2022-11-15T09:20:21.438Z,13.35
2022-11-15T09:21:20.955Z,13.31
2022-11-15T09:22:20.946Z,13.35
2022-11-15T09:23:20.942Z,13.35
2022-11-15T09:24:20.940Z,13.38
2022-11-15T09:25:20.919Z,13.38
2022-11-15T09:26:20.923Z,13.35
2022-11-15T09:27:20.897Z,13.38
2022-11-15T09:28:20.889Z,13.39
2022-11-15T09:29:20.876Z,13.32
2022-11-15T09:30:20.864Z,13.39
2022-11-15T09:31:22.211Z,13.32
2022-11-15T09:32:20.842Z,13.39
2022-11-15T09:33:20.831Z,13.43
2022-11-15T09:34:20.824Z,13.36
2022-11-15T09:35:20.813Z,13.39
2022-11-15T09:36:20.832Z,13.38
2022-11-15T09:37:20.772Z,13.48
2022-11-15T09:38:20.773Z,13.38
2022-11-15T09:39:20.771Z,13.38
2022-11-15T09:40:20.768Z,13.41
2022-11-15T09:41:20.751Z,13.46
2022-11-15T09:42:20.748Z,13.46
2022-11-15T09:43:20.718Z,13.50
2022-11-15T09:44:25.277Z,13.48
2022-11-15T09:45:20.705Z,13.48
2022-11-15T09:46:20.702Z,13.51
2022-11-15T09:47:20.947Z,13.47
2022-11-15T09:48:27.410Z,13.59
2022-11-15T09:49:20.651Z,13.57
2022-11-15T09:50:27.411Z,13.50
2022-11-15T09:51:21.416Z,13.54
2022-11-15T09:52:21.423Z,13.54
2022-11-15T09:53:39.453Z,13.63
2022-11-15T09:54:51.456Z,13.62
2022-11-15T09:55:21.601Z,13.59
2022-11-15T09:56:21.416Z,13.55
2022-11-15T09:57:27.419Z,13.59
2022-11-15T09:58:21.413Z,13.53
2022-11-15T09:59:21.637Z,13.63
2022-11-15T10:01:24.486Z,13.62
2022-11-15T10:02:20.517Z,13.59
2022-11-15T10:03:20.515Z,13.62
2022-11-15T10:04:23.405Z,13.57
2022-11-15T10:05:20.948Z,13.65
2022-11-15T10:06:20.474Z,13.59
2022-11-15T10:07:23.454Z,13.65
2022-11-15T10:08:27.418Z,13.79
2022-11-15T10:09:23.921Z,13.72
2022-11-15T10:10:20.470Z,13.62
2022-11-15T10:11:37.686Z,13.68
2022-11-15T10:12:21.940Z,13.61
2022-11-15T10:13:20.410Z,13.62
2022-11-15T10:14:20.390Z,13.61
2022-11-15T10:15:22.918Z,13.72
2022-11-15T10:16:20.395Z,13.69
2022-11-15T10:17:21.381Z,13.71
2022-11-15T10:18:20.350Z,13.62
2022-11-15T10:19:20.372Z,13.69
2022-11-15T10:20:20.922Z,13.71
2022-11-15T10:21:20.913Z,13.69
2022-11-15T10:22:20.326Z,13.81
2022-11-15T10:23:20.292Z,13.71
2022-11-15T10:24:20.914Z,13.88
2022-11-15T10:25:20.300Z,13.83
2022-11-15T10:26:20.275Z,13.87
2022-11-15T10:27:20.291Z,13.86
2022-11-15T10:28:20.454Z,13.87
2022-11-15T10:29:26.726Z,13.84
2022-11-15T10:30:20.220Z,13.86
2022-11-15T10:31:26.912Z,13.83
2022-11-15T10:32:20.201Z,13.96
2022-11-15T10:33:20.205Z,13.99
2022-11-15T10:34:20.171Z,14.01
2022-11-15T10:35:20.172Z,13.98
2022-11-15T10:36:20.161Z,13.96
2022-11-15T10:37:20.149Z,13.98
2022-11-15T10:38:20.134Z,14.16
2022-11-15T10:39:20.105Z,14.17
2022-11-15T10:40:22.916Z,14.17
2022-11-15T10:41:20.111Z,14.11
2022-11-15T10:42:20.087Z,14.13
2022-11-15T10:43:20.905Z,14.20
2022-11-15T10:44:20.105Z,14.17
2022-11-15T10:45:20.051Z,14.20
2022-11-15T10:46:45.127Z,14.24
2022-11-15T10:47:21.059Z,14.30
2022-11-15T10:48:20.009Z,14.21
2022-11-15T10:49:20.010Z,14.29
2022-11-15T10:50:20.922Z,14.29
2022-11-15T10:51:21.000Z,14.34
2022-11-15T10:52:20.944Z,14.26
2022-11-15T10:53:22.002Z,14.31
2022-11-15T10:54:22.918Z,14.23
2022-11-15T10:55:20.964Z,14.30
2022-11-15T10:56:19.914Z,14.24
2022-11-15T10:57:20.429Z,14.31
2022-11-15T10:58:22.419Z,14.31
2022-11-15T10:59:19.894Z,14.39
2022-11-15T11:00:19.978Z,14.30
2022-11-15T11:01:20.590Z,14.30
2022-11-15T11:02:22.413Z,14.30
2022-11-15T11:03:20.870Z,14.39
2022-11-15T11:04:19.840Z,14.39
2022-11-15T11:05:20.421Z,14.42
2022-11-15T11:06:19.962Z,14.41
2022-11-15T11:07:22.481Z,14.46
2022-11-15T11:08:19.798Z,14.45
2022-11-15T11:09:40.782Z,14.49
2022-11-15T11:10:49.377Z,14.53
2022-11-15T11:11:20.946Z,14.49
2022-11-15T11:12:26.417Z,14.48
2022-11-15T11:13:19.729Z,14.60
2022-11-15T11:14:20.431Z,14.59
2022-11-15T11:15:19.709Z,14.53
2022-11-15T11:16:19.756Z,14.61
2022-11-15T11:17:19.682Z,14.67
2022-11-15T11:18:19.786Z,14.72
2022-11-15T11:19:19.664Z,14.82
2022-11-15T11:20:19.713Z,14.78
2022-11-15T11:21:19.637Z,14.90
2022-11-15T11:22:19.672Z,14.93
2022-11-15T11:23:19.612Z,14.93
2022-11-15T11:24:19.609Z,14.82
2022-11-15T11:25:19.611Z,14.82
2022-11-15T11:26:19.599Z,14.72
2022-11-15T11:27:19.587Z,14.71
2022-11-15T11:28:19.590Z,14.69
2022-11-15T11:29:19.540Z,14.69
2022-11-15T11:30:19.543Z,14.66
2022-11-15T11:31:19.529Z,14.78
2022-11-15T11:32:20.005Z,14.86
2022-11-15T11:33:19.507Z,15.03
2022-11-15T11:34:22.502Z,15.01
2022-11-15T11:35:20.428Z,14.97
2022-11-15T11:36:20.423Z,15.04
2022-11-15T11:37:19.466Z,15.03
2022-11-15T11:38:19.489Z,15.03
2022-11-15T11:39:19.446Z,15.04
2022-11-15T11:40:19.432Z,15.04
2022-11-15T11:41:19.425Z,14.98
2022-11-15T11:42:19.408Z,14.94
2022-11-15T11:43:25.920Z,15.00
2022-11-15T11:44:20.515Z,15.09
2022-11-15T11:45:19.392Z,15.00
2022-11-15T11:46:19.937Z,15.07
2022-11-15T11:47:19.449Z,15.12
2022-11-15T11:48:19.474Z,14.98
2022-11-15T11:49:19.338Z,15.07
2022-11-15T11:50:21.930Z,15.13
2022-11-15T11:51:19.314Z,15.18
2022-11-15T11:52:19.306Z,15.20
2022-11-15T11:53:19.304Z,15.30
2022-11-15T11:54:19.288Z,15.31
2022-11-15T11:55:19.268Z,15.44
2022-11-15T11:56:19.252Z,15.48
2022-11-15T11:57:19.240Z,15.59
2022-11-15T11:58:19.267Z,15.53
2022-11-15T11:59:19.247Z,15.74
2022-11-15T12:00:19.212Z,15.55
2022-11-15T12:01:19.199Z,15.56
2022-11-15T12:02:19.307Z,15.59
2022-11-15T12:03:19.267Z,15.49
2022-11-15T12:04:19.185Z,15.51
2022-11-15T12:05:19.457Z,15.58
2022-11-15T12:06:19.944Z,15.68
2022-11-15T12:07:19.198Z,15.73
2022-11-15T12:08:21.920Z,15.70
2022-11-15T12:09:19.119Z,15.77
2022-11-15T12:10:19.106Z,15.73
2022-11-15T12:11:19.127Z,15.80
2022-11-15T12:12:19.086Z,15.76
2022-11-15T12:13:19.065Z,15.68
2022-11-15T12:14:19.055Z,15.74
2022-11-15T12:15:19.070Z,15.71
2022-11-15T12:16:19.077Z,15.71
2022-11-15T12:17:19.941Z,15.59
2022-11-15T12:18:19.024Z,15.51
2022-11-15T12:19:19.009Z,15.53
2022-11-15T12:20:19.005Z,15.64
2022-11-15T12:21:23.964Z,15.67
2022-11-15T12:22:19.969Z,15.76
2022-11-15T12:23:26.951Z,15.84
2022-11-15T12:24:25.925Z,15.71
2022-11-15T12:25:18.953Z,15.67
2022-11-15T12:26:18.984Z,15.74
2022-11-15T12:27:23.412Z,15.76
2022-11-15T12:28:19.911Z,15.73
2022-11-15T12:29:18.897Z,15.64
2022-11-15T12:30:19.431Z,15.66
2022-11-15T12:31:19.428Z,15.73
2022-11-15T12:32:18.878Z,15.76
2022-11-15T12:33:18.851Z,15.86
2022-11-15T12:34:19.435Z,15.76
2022-11-15T12:35:18.828Z,15.88
2022-11-15T12:36:18.977Z,15.78
2022-11-15T12:37:19.436Z,15.96
2022-11-15T12:38:19.433Z,15.93
2022-11-15T12:39:19.465Z,15.92
2022-11-15T12:40:19.472Z,15.93
2022-11-15T12:41:19.442Z,15.89
2022-11-15T12:42:18.971Z,15.89
2022-11-15T12:43:18.741Z,15.95
2022-11-15T12:44:19.440Z,15.98
2022-11-15T12:45:19.424Z,15.93
2022-11-15T12:46:19.431Z,15.95
2022-11-15T12:47:23.065Z,15.96
2022-11-15T12:48:18.724Z,16.01
2022-11-15T12:49:18.690Z,16.07
2022-11-15T12:50:19.433Z,15.93
2022-11-15T12:51:19.433Z,15.95
2022-11-15T12:52:18.680Z,15.88
2022-11-15T12:53:18.650Z,15.85
2022-11-15T12:54:18.657Z,15.93
2022-11-15T12:55:18.613Z,15.95
2022-11-15T12:56:18.652Z,15.95